sensor_id;sensor_type;location;lat;lon;timestamp;P1;durP1;ratioP1;P2;durP2;ratioP2
53961;SDS011;39868;53.398;6.564;2022-10-17T00:00:59;5.30;;;3.15;;
53961;SDS011;39868;53.398;6.564;2022-10-17T00:03:26;5.40;;;3.40;;
53961;SDS011;39868;53.398;6.564;2022-10-17T00:05:54;4.82;;;2.90;;
53961;SDS011;39868;53.398;6.564;2022-10-17T00:08:24;5.35;;;3.10;;
53961;SDS011;39868;53.398;6.564;2022-10-17T00:11:01;4.07;;;3.15;;
53961;SDS011;39868;53.398;6.564;2022-10-17T00:13:32;4.63;;;2.92;;
53961;SDS011;39868;53.398;6.564;2022-10-17T00:16:00;5.20;;;3.08;;
53961;SDS011;39868;53.398;6.564;2022-10-17T00:18:28;7.60;;;2.90;;
53961;SDS011;39868;53.398;6.564;2022-10-17T00:20:55;5.25;;;2.92;;
53961;SDS011;39868;53.398;6.564;2022-10-17T00:23:23;5.20;;;2.88;;
53961;SDS011;39868;53.398;6.564;2022-10-17T00:26:00;5.50;;;2.72;;
53961;SDS011;39868;53.398;6.564;2022-10-17T00:28:29;5.35;;;2.72;;
53961;SDS011;39868;53.398;6.564;2022-10-17T00:30:58;6.40;;;2.88;;
53961;SDS011;39868;53.398;6.564;2022-10-17T00:33:27;5.65;;;3.10;;
53961;SDS011;39868;53.398;6.564;2022-10-17T00:36:28;5.68;;;3.22;;
53961;SDS011;39868;53.398;6.564;2022-10-17T00:38:54;2.95;;;2.63;;
53961;SDS011;39868;53.398;6.564;2022-10-17T00:41:24;6.85;;;3.28;;
53961;SDS011;39868;53.398;6.564;2022-10-17T00:46:32;3.50;;;3.20;;
53961;SDS011;39868;53.398;6.564;2022-10-17T00:49:02;5.10;;;3.05;;
53961;SDS011;39868;53.398;6.564;2022-10-17T00:51:42;6.28;;;3.28;;
53961;SDS011;39868;53.398;6.564;2022-10-17T00:54:15;5.70;;;3.22;;
53961;SDS011;39868;53.398;6.564;2022-10-17T00:56:45;6.25;;;3.20;;
53961;SDS011;39868;53.398;6.564;2022-10-17T00:59:14;8.27;;;3.60;;
53961;SDS011;39868;53.398;6.564;2022-10-17T01:01:45;4.35;;;3.00;;
53961;SDS011;39868;53.398;6.564;2022-10-17T01:04:19;5.38;;;3.22;;
53961;SDS011;39868;53.398;6.564;2022-10-17T01:06:47;6.70;;;3.10;;
53961;SDS011;39868;53.398;6.564;2022-10-17T01:09:14;7.72;;;3.20;;
53961;SDS011;39868;53.398;6.564;2022-10-17T01:16:54;4.15;;;2.97;;
53961;SDS011;39868;53.398;6.564;2022-10-17T01:22:43;3.85;;;2.55;;
53961;SDS011;39868;53.398;6.564;2022-10-17T01:33:51;6.15;;;2.00;;
53961;SDS011;39868;53.398;6.564;2022-10-17T01:37:07;3.55;;;2.08;;
53961;SDS011;39868;53.398;6.564;2022-10-17T01:41:57;2.88;;;2.20;;
53961;SDS011;39868;53.398;6.564;2022-10-17T01:44:45;9.13;;;2.20;;
53961;SDS011;39868;53.398;6.564;2022-10-17T01:47:21;2.88;;;2.38;;
53961;SDS011;39868;53.398;6.564;2022-10-17T01:49:55;4.22;;;2.03;;
53961;SDS011;39868;53.398;6.564;2022-10-17T01:52:47;4.50;;;2.38;;
53961;SDS011;39868;53.398;6.564;2022-10-17T01:55:24;4.45;;;2.45;;
53961;SDS011;39868;53.398;6.564;2022-10-17T01:58:09;4.25;;;2.60;;
53961;SDS011;39868;53.398;6.564;2022-10-17T02:00:41;5.50;;;2.88;;
53961;SDS011;39868;53.398;6.564;2022-10-17T02:03:12;5.43;;;3.08;;
53961;SDS011;39868;53.398;6.564;2022-10-17T02:05:43;4.68;;;2.65;;
53961;SDS011;39868;53.398;6.564;2022-10-17T02:08:12;5.03;;;2.95;;
53961;SDS011;39868;53.398;6.564;2022-10-17T02:19:45;6.65;;;3.53;;
53961;SDS011;39868;53.398;6.564;2022-10-17T02:22:41;4.95;;;2.85;;
53961;SDS011;39868;53.398;6.564;2022-10-17T02:30:44;5.88;;;3.40;;
53961;SDS011;39868;53.398;6.564;2022-10-17T02:36:09;3.15;;;2.85;;
53961;SDS011;39868;53.398;6.564;2022-10-17T02:38:41;4.97;;;3.30;;
53961;SDS011;39868;53.398;6.564;2022-10-17T02:41:12;5.28;;;3.55;;
53961;SDS011;39868;53.398;6.564;2022-10-17T02:43:44;4.57;;;3.50;;
53961;SDS011;39868;53.398;6.564;2022-10-17T02:46:15;4.95;;;3.35;;
53961;SDS011;39868;53.398;6.564;2022-10-17T02:48:48;5.25;;;3.47;;
53961;SDS011;39868;53.398;6.564;2022-10-17T02:56:45;5.00;;;3.25;;
53961;SDS011;39868;53.398;6.564;2022-10-17T02:59:17;4.15;;;3.40;;
53961;SDS011;39868;53.398;6.564;2022-10-17T03:01:50;4.60;;;3.20;;
53961;SDS011;39868;53.398;6.564;2022-10-17T03:04:18;5.07;;;3.67;;
53961;SDS011;39868;53.398;6.564;2022-10-17T03:06:47;5.68;;;3.67;;
53961;SDS011;39868;53.398;6.564;2022-10-17T03:09:16;4.35;;;3.72;;
53961;SDS011;39868;53.398;6.564;2022-10-17T03:11:44;6.85;;;3.97;;
53961;SDS011;39868;53.398;6.564;2022-10-17T03:14:11;6.45;;;4.30;;
53961;SDS011;39868;53.398;6.564;2022-10-17T03:16:40;5.82;;;4.03;;
53961;SDS011;39868;53.398;6.564;2022-10-17T03:19:07;5.93;;;3.85;;
53961;SDS011;39868;53.398;6.564;2022-10-17T03:21:35;6.78;;;3.90;;
53961;SDS011;39868;53.398;6.564;2022-10-17T03:24:05;4.07;;;3.67;;
53961;SDS011;39868;53.398;6.564;2022-10-17T03:26:33;3.92;;;3.38;;
53961;SDS011;39868;53.398;6.564;2022-10-17T03:29:01;4.30;;;3.80;;
53961;SDS011;39868;53.398;6.564;2022-10-17T03:31:31;5.35;;;4.55;;
53961;SDS011;39868;53.398;6.564;2022-10-17T03:34:00;5.20;;;3.90;;
53961;SDS011;39868;53.398;6.564;2022-10-17T03:36:28;7.60;;;4.65;;
53961;SDS011;39868;53.398;6.564;2022-10-17T03:38:56;4.13;;;3.83;;
53961;SDS011;39868;53.398;6.564;2022-10-17T03:41:23;5.80;;;4.10;;
53961;SDS011;39868;53.398;6.564;2022-10-17T03:43:52;6.28;;;4.13;;
53961;SDS011;39868;53.398;6.564;2022-10-17T03:46:21;7.90;;;4.43;;
53961;SDS011;39868;53.398;6.564;2022-10-17T03:48:49;7.88;;;4.28;;
53961;SDS011;39868;53.398;6.564;2022-10-17T03:51:17;5.18;;;3.92;;
53961;SDS011;39868;53.398;6.564;2022-10-17T03:53:50;4.82;;;4.32;;
53961;SDS011;39868;53.398;6.564;2022-10-17T03:56:19;8.48;;;4.47;;
53961;SDS011;39868;53.398;6.564;2022-10-17T03:59:01;8.55;;;4.38;;
53961;SDS011;39868;53.398;6.564;2022-10-17T04:01:31;6.22;;;4.15;;
53961;SDS011;39868;53.398;6.564;2022-10-17T04:03:59;7.30;;;4.50;;
53961;SDS011;39868;53.398;6.564;2022-10-17T04:06:30;6.22;;;4.53;;
53961;SDS011;39868;53.398;6.564;2022-10-17T04:08:59;4.43;;;4.03;;
53961;SDS011;39868;53.398;6.564;2022-10-17T04:11:35;5.18;;;4.13;;
53961;SDS011;39868;53.398;6.564;2022-10-17T04:14:03;4.38;;;3.97;;
53961;SDS011;39868;53.398;6.564;2022-10-17T04:16:31;6.95;;;4.40;;
53961;SDS011;39868;53.398;6.564;2022-10-17T04:19:02;6.55;;;4.43;;
53961;SDS011;39868;53.398;6.564;2022-10-17T04:21:35;5.60;;;4.75;;
53961;SDS011;39868;53.398;6.564;2022-10-17T04:24:05;5.80;;;4.40;;
53961;SDS011;39868;53.398;6.564;2022-10-17T04:26:53;5.15;;;4.65;;
53961;SDS011;39868;53.398;6.564;2022-10-17T04:29:24;4.88;;;4.40;;
53961;SDS011;39868;53.398;6.564;2022-10-17T04:31:59;5.78;;;4.30;;
53961;SDS011;39868;53.398;6.564;2022-10-17T04:34:33;7.90;;;4.70;;
53961;SDS011;39868;53.398;6.564;2022-10-17T04:37:00;4.85;;;4.35;;
53961;SDS011;39868;53.398;6.564;2022-10-17T04:39:28;5.18;;;4.68;;
53961;SDS011;39868;53.398;6.564;2022-10-17T04:41:56;4.85;;;4.10;;
53961;SDS011;39868;53.398;6.564;2022-10-17T04:44:24;6.47;;;4.57;;
53961;SDS011;39868;53.398;6.564;2022-10-17T04:46:52;8.02;;;4.75;;
53961;SDS011;39868;53.398;6.564;2022-10-17T04:49:21;6.13;;;4.32;;
53961;SDS011;39868;53.398;6.564;2022-10-17T04:51:52;6.57;;;4.40;;
53961;SDS011;39868;53.398;6.564;2022-10-17T04:54:28;6.28;;;4.50;;
53961;SDS011;39868;53.398;6.564;2022-10-17T04:57:02;7.35;;;4.70;;
53961;SDS011;39868;53.398;6.564;2022-10-17T04:59:30;6.13;;;4.90;;
53961;SDS011;39868;53.398;6.564;2022-10-17T05:02:15;5.15;;;4.65;;
53961;SDS011;39868;53.398;6.564;2022-10-17T05:04:44;9.40;;;5.50;;
53961;SDS011;39868;53.398;6.564;2022-10-17T05:07:12;5.93;;;4.85;;
53961;SDS011;39868;53.398;6.564;2022-10-17T05:09:58;6.95;;;4.97;;
53961;SDS011;39868;53.398;6.564;2022-10-17T05:12:27;5.65;;;5.07;;
53961;SDS011;39868;53.398;6.564;2022-10-17T05:14:55;5.40;;;4.90;;
53961;SDS011;39868;53.398;6.564;2022-10-17T05:17:24;5.57;;;5.05;;
53961;SDS011;39868;53.398;6.564;2022-10-17T05:19:52;5.43;;;4.90;;
53961;SDS011;39868;53.398;6.564;2022-10-17T05:22:19;5.93;;;5.32;;
53961;SDS011;39868;53.398;6.564;2022-10-17T05:24:47;6.75;;;5.03;;
53961;SDS011;39868;53.398;6.564;2022-10-17T05:27:15;6.35;;;5.40;;
53961;SDS011;39868;53.398;6.564;2022-10-17T05:29:42;8.43;;;5.15;;
53961;SDS011;39868;53.398;6.564;2022-10-17T05:32:17;5.53;;;5.00;;
53961;SDS011;39868;53.398;6.564;2022-10-17T05:34:46;5.28;;;4.78;;
53961;SDS011;39868;53.398;6.564;2022-10-17T05:37:14;6.40;;;5.32;;
53961;SDS011;39868;53.398;6.564;2022-10-17T05:39:45;6.30;;;5.03;;
53961;SDS011;39868;53.398;6.564;2022-10-17T05:42:18;5.85;;;4.95;;
53961;SDS011;39868;53.398;6.564;2022-10-17T05:44:46;6.70;;;5.22;;
53961;SDS011;39868;53.398;6.564;2022-10-17T05:47:16;6.72;;;6.03;;
53961;SDS011;39868;53.398;6.564;2022-10-17T05:49:44;6.65;;;5.35;;
53961;SDS011;39868;53.398;6.564;2022-10-17T05:52:20;8.23;;;5.38;;
53961;SDS011;39868;53.398;6.564;2022-10-17T05:54:59;6.30;;;5.30;;
53961;SDS011;39868;53.398;6.564;2022-10-17T05:57:27;5.68;;;4.97;;
53961;SDS011;39868;53.398;6.564;2022-10-17T05:59:55;6.78;;;5.75;;
53961;SDS011;39868;53.398;6.564;2022-10-17T06:02:23;6.55;;;5.82;;
53961;SDS011;39868;53.398;6.564;2022-10-17T06:04:51;6.03;;;5.43;;
53961;SDS011;39868;53.398;6.564;2022-10-17T06:07:21;7.47;;;5.50;;
53961;SDS011;39868;53.398;6.564;2022-10-17T06:09:49;6.15;;;5.22;;
53961;SDS011;39868;53.398;6.564;2022-10-17T06:12:16;7.22;;;6.18;;
53961;SDS011;39868;53.398;6.564;2022-10-17T06:14:45;6.75;;;5.53;;
53961;SDS011;39868;53.398;6.564;2022-10-17T06:17:14;6.97;;;5.90;;
53961;SDS011;39868;53.398;6.564;2022-10-17T06:19:43;6.10;;;5.53;;
53961;SDS011;39868;53.398;6.564;2022-10-17T06:22:13;7.78;;;5.97;;
53961;SDS011;39868;53.398;6.564;2022-10-17T06:24:41;6.75;;;5.32;;
53961;SDS011;39868;53.398;6.564;2022-10-17T06:27:10;7.30;;;5.97;;
53961;SDS011;39868;53.398;6.564;2022-10-17T06:29:39;6.60;;;5.93;;
53961;SDS011;39868;53.398;6.564;2022-10-17T06:32:08;6.18;;;5.57;;
53961;SDS011;39868;53.398;6.564;2022-10-17T06:34:44;8.23;;;6.00;;
53961;SDS011;39868;53.398;6.564;2022-10-17T06:37:11;7.95;;;5.85;;
53961;SDS011;39868;53.398;6.564;2022-10-17T06:39:40;6.13;;;5.50;;
53961;SDS011;39868;53.398;6.564;2022-10-17T06:42:20;8.23;;;6.10;;
53961;SDS011;39868;53.398;6.564;2022-10-17T06:45:07;8.73;;;5.88;;
53961;SDS011;39868;53.398;6.564;2022-10-17T06:47:35;6.78;;;6.18;;
53961;SDS011;39868;53.398;6.564;2022-10-17T06:50:23;7.68;;;5.95;;
53961;SDS011;39868;53.398;6.564;2022-10-17T06:53:08;6.25;;;5.65;;
53961;SDS011;39868;53.398;6.564;2022-10-17T06:55:59;9.30;;;6.10;;
53961;SDS011;39868;53.398;6.564;2022-10-17T06:58:46;6.47;;;5.78;;
53961;SDS011;39868;53.398;6.564;2022-10-17T07:01:27;7.75;;;5.97;;
53961;SDS011;39868;53.398;6.564;2022-10-17T07:03:58;7.00;;;6.28;;
53961;SDS011;39868;53.398;6.564;2022-10-17T07:06:27;7.28;;;6.13;;
53961;SDS011;39868;53.398;6.564;2022-10-17T07:08:58;6.13;;;5.53;;
53961;SDS011;39868;53.398;6.564;2022-10-17T07:11:28;6.45;;;5.85;;
53961;SDS011;39868;53.398;6.564;2022-10-17T07:13:55;8.80;;;6.47;;
53961;SDS011;39868;53.398;6.564;2022-10-17T07:16:23;7.93;;;6.38;;
53961;SDS011;39868;53.398;6.564;2022-10-17T07:18:59;7.80;;;7.03;;
53961;SDS011;39868;53.398;6.564;2022-10-17T07:21:32;6.82;;;6.10;;
53961;SDS011;39868;53.398;6.564;2022-10-17T07:24:05;7.25;;;6.18;;
53961;SDS011;39868;53.398;6.564;2022-10-17T07:26:33;7.03;;;6.32;;
53961;SDS011;39868;53.398;6.564;2022-10-17T07:29:01;7.55;;;6.20;;
53961;SDS011;39868;53.398;6.564;2022-10-17T07:31:51;9.10;;;6.95;;
53961;SDS011;39868;53.398;6.564;2022-10-17T07:34:19;11.43;;;7.13;;
53961;SDS011;39868;53.398;6.564;2022-10-17T07:36:47;8.43;;;6.72;;
53961;SDS011;39868;53.398;6.564;2022-10-17T07:39:15;9.35;;;6.38;;
53961;SDS011;39868;53.398;6.564;2022-10-17T07:41:44;8.75;;;7.30;;
53961;SDS011;39868;53.398;6.564;2022-10-17T07:44:11;9.85;;;7.50;;
53961;SDS011;39868;53.398;6.564;2022-10-17T07:46:45;7.53;;;6.75;;
53961;SDS011;39868;53.398;6.564;2022-10-17T07:49:14;8.25;;;7.18;;
53961;SDS011;39868;53.398;6.564;2022-10-17T07:51:41;8.15;;;6.95;;
53961;SDS011;39868;53.398;6.564;2022-10-17T07:54:09;10.73;;;7.30;;
53961;SDS011;39868;53.398;6.564;2022-10-17T07:56:37;8.25;;;6.90;;
53961;SDS011;39868;53.398;6.564;2022-10-17T07:59:04;8.10;;;6.50;;
53961;SDS011;39868;53.398;6.564;2022-10-17T08:01:35;8.20;;;7.38;;
53961;SDS011;39868;53.398;6.564;2022-10-17T08:04:02;7.82;;;6.75;;
53961;SDS011;39868;53.398;6.564;2022-10-17T08:06:30;9.13;;;6.95;;
53961;SDS011;39868;53.398;6.564;2022-10-17T08:08:57;7.93;;;6.30;;
53961;SDS011;39868;53.398;6.564;2022-10-17T08:11:27;7.28;;;6.57;;
53961;SDS011;39868;53.398;6.564;2022-10-17T08:13:54;9.52;;;7.40;;
53961;SDS011;39868;53.398;6.564;2022-10-17T08:16:22;8.27;;;6.75;;
53961;SDS011;39868;53.398;6.564;2022-10-17T08:18:49;9.88;;;6.95;;
53961;SDS011;39868;53.398;6.564;2022-10-17T08:21:17;8.07;;;6.68;;
53961;SDS011;39868;53.398;6.564;2022-10-17T08:23:44;8.20;;;6.97;;
53961;SDS011;39868;53.398;6.564;2022-10-17T08:26:12;9.20;;;7.18;;
53961;SDS011;39868;53.398;6.564;2022-10-17T08:28:42;9.98;;;7.30;;
53961;SDS011;39868;53.398;6.564;2022-10-17T08:31:11;8.20;;;7.32;;
53961;SDS011;39868;53.398;6.564;2022-10-17T08:33:41;8.45;;;6.88;;
53961;SDS011;39868;53.398;6.564;2022-10-17T08:36:09;7.47;;;6.53;;
53961;SDS011;39868;53.398;6.564;2022-10-17T08:38:39;7.47;;;6.72;;
53961;SDS011;39868;53.398;6.564;2022-10-17T08:41:13;8.52;;;6.80;;
53961;SDS011;39868;53.398;6.564;2022-10-17T08:46:36;7.90;;;6.60;;
53961;SDS011;39868;53.398;6.564;2022-10-17T08:49:10;8.90;;;6.80;;
53961;SDS011;39868;53.398;6.564;2022-10-17T08:52:04;7.55;;;6.75;;
53961;SDS011;39868;53.398;6.564;2022-10-17T08:54:40;7.95;;;6.93;;
53961;SDS011;39868;53.398;6.564;2022-10-17T08:57:12;7.53;;;6.05;;
53961;SDS011;39868;53.398;6.564;2022-10-17T08:59:42;7.05;;;6.32;;
53961;SDS011;39868;53.398;6.564;2022-10-17T09:02:25;7.95;;;7.20;;
53961;SDS011;39868;53.398;6.564;2022-10-17T09:13:55;8.50;;;6.72;;
53961;SDS011;39868;53.398;6.564;2022-10-17T09:22:20;10.18;;;6.75;;
53961;SDS011;39868;53.398;6.564;2022-10-17T09:25:01;6.97;;;6.27;;
53961;SDS011;39868;53.398;6.564;2022-10-17T09:27:34;7.27;;;6.07;;
53961;SDS011;39868;53.398;6.564;2022-10-17T09:33:12;8.90;;;6.90;;
53961;SDS011;39868;53.398;6.564;2022-10-17T09:36:00;8.85;;;6.45;;
53961;SDS011;39868;53.398;6.564;2022-10-17T09:38:38;7.72;;;6.85;;
53961;SDS011;39868;53.398;6.564;2022-10-17T09:41:16;8.13;;;7.25;;
53961;SDS011;39868;53.398;6.564;2022-10-17T09:49:33;7.80;;;7.00;;
53961;SDS011;39868;53.398;6.564;2022-10-17T09:52:08;8.13;;;7.05;;
53961;SDS011;39868;53.398;6.564;2022-10-17T09:54:44;8.18;;;7.47;;
53961;SDS011;39868;53.398;6.564;2022-10-17T09:57:20;8.82;;;7.50;;
53961;SDS011;39868;53.398;6.564;2022-10-17T09:59:59;8.52;;;6.90;;
53961;SDS011;39868;53.398;6.564;2022-10-17T10:02:38;9.10;;;7.15;;
53961;SDS011;39868;53.398;6.564;2022-10-17T10:05:17;6.65;;;6.05;;
53961;SDS011;39868;53.398;6.564;2022-10-17T10:08:02;8.27;;;7.00;;
53961;SDS011;39868;53.398;6.564;2022-10-17T10:10:44;8.98;;;7.60;;
53961;SDS011;39868;53.398;6.564;2022-10-17T10:15:41;8.30;;;7.30;;
53961;SDS011;39868;53.398;6.564;2022-10-17T10:18:27;8.77;;;6.80;;
53961;SDS011;39868;53.398;6.564;2022-10-17T10:23:29;8.23;;;7.00;;
53961;SDS011;39868;53.398;6.564;2022-10-17T10:25:57;9.85;;;7.05;;
53961;SDS011;39868;53.398;6.564;2022-10-17T10:28:32;8.90;;;7.00;;
53961;SDS011;39868;53.398;6.564;2022-10-17T10:31:01;8.70;;;6.90;;
53961;SDS011;39868;53.398;6.564;2022-10-17T10:33:34;7.97;;;7.18;;
53961;SDS011;39868;53.398;6.564;2022-10-17T10:36:08;7.88;;;6.43;;
53961;SDS011;39868;53.398;6.564;2022-10-17T10:38:35;7.07;;;6.38;;
53961;SDS011;39868;53.398;6.564;2022-10-17T10:41:08;13.10;;;7.63;;
53961;SDS011;39868;53.398;6.564;2022-10-17T10:43:41;7.78;;;6.28;;
53961;SDS011;39868;53.398;6.564;2022-10-17T10:46:18;7.63;;;6.35;;
53961;SDS011;39868;53.398;6.564;2022-10-17T10:48:55;8.18;;;6.93;;
53961;SDS011;39868;53.398;6.564;2022-10-17T10:51:29;10.82;;;7.07;;
53961;SDS011;39868;53.398;6.564;2022-10-17T10:54:20;9.30;;;6.82;;
53961;SDS011;39868;53.398;6.564;2022-10-17T10:57:01;7.90;;;7.10;;
53961;SDS011;39868;53.398;6.564;2022-10-17T11:02:17;8.93;;;6.43;;
53961;SDS011;39868;53.398;6.564;2022-10-17T11:04:57;6.72;;;6.10;;
53961;SDS011;39868;53.398;6.564;2022-10-17T11:07:36;7.95;;;6.22;;
53961;SDS011;39868;53.398;6.564;2022-10-17T11:13:19;6.85;;;6.15;;
53961;SDS011;39868;53.398;6.564;2022-10-17T11:16:18;6.70;;;6.00;;
53961;SDS011;39868;53.398;6.564;2022-10-17T11:18:57;7.55;;;6.13;;
53961;SDS011;39868;53.398;6.564;2022-10-17T11:21:40;7.70;;;6.45;;
53961;SDS011;39868;53.398;6.564;2022-10-17T11:24:23;8.73;;;6.32;;
53961;SDS011;39868;53.398;6.564;2022-10-17T11:27:05;6.70;;;6.10;;
53961;SDS011;39868;53.398;6.564;2022-10-17T11:29:34;10.23;;;6.30;;
53961;SDS011;39868;53.398;6.564;2022-10-17T11:32:10;7.72;;;6.93;;
53961;SDS011;39868;53.398;6.564;2022-10-17T11:34:44;6.88;;;6.05;;
53961;SDS011;39868;53.398;6.564;2022-10-17T11:37:17;7.43;;;6.30;;
53961;SDS011;39868;53.398;6.564;2022-10-17T11:42:40;6.75;;;6.05;;
53961;SDS011;39868;53.398;6.564;2022-10-17T11:45:30;7.40;;;6.68;;
53961;SDS011;39868;53.398;6.564;2022-10-17T11:48:15;7.22;;;5.90;;
53961;SDS011;39868;53.398;6.564;2022-10-17T11:51:09;6.65;;;5.97;;
53961;SDS011;39868;53.398;6.564;2022-10-17T12:02:28;7.00;;;6.35;;
53961;SDS011;39868;53.398;6.564;2022-10-17T12:05:14;8.10;;;6.20;;
53961;SDS011;39868;53.398;6.564;2022-10-17T12:08:29;7.88;;;6.85;;
53961;SDS011;39868;53.398;6.564;2022-10-17T12:14:41;8.07;;;6.60;;
53961;SDS011;39868;53.398;6.564;2022-10-17T12:20:12;8.77;;;7.40;;
53961;SDS011;39868;53.398;6.564;2022-10-17T12:25:28;6.85;;;6.07;;
53961;SDS011;39868;53.398;6.564;2022-10-17T12:30:32;7.10;;;6.28;;
53961;SDS011;39868;53.398;6.564;2022-10-17T12:35:50;7.22;;;6.53;;
53961;SDS011;39868;53.398;6.564;2022-10-17T12:46:47;7.57;;;6.53;;
53961;SDS011;39868;53.398;6.564;2022-10-17T12:57:50;7.22;;;5.63;;
53961;SDS011;39868;53.398;6.564;2022-10-17T13:03:40;5.40;;;5.00;;
53961;SDS011;39868;53.398;6.564;2022-10-17T13:06:12;8.10;;;5.70;;
53961;SDS011;39868;53.398;6.564;2022-10-17T13:08:47;5.75;;;5.28;;
53961;SDS011;39868;53.398;6.564;2022-10-17T13:11:30;5.82;;;5.32;;
53961;SDS011;39868;53.398;6.564;2022-10-17T13:14:02;5.85;;;5.25;;
53961;SDS011;39868;53.398;6.564;2022-10-17T13:16:52;6.82;;;5.53;;
53961;SDS011;39868;53.398;6.564;2022-10-17T13:19:42;8.82;;;6.03;;
53961;SDS011;39868;53.398;6.564;2022-10-17T13:22:21;6.50;;;5.90;;
53961;SDS011;39868;53.398;6.564;2022-10-17T13:25:07;6.80;;;5.10;;
53961;SDS011;39868;53.398;6.564;2022-10-17T13:27:43;5.60;;;5.10;;
53961;SDS011;39868;53.398;6.564;2022-10-17T13:30:26;5.75;;;5.25;;
53961;SDS011;39868;53.398;6.564;2022-10-17T13:32:59;5.53;;;5.13;;
53961;SDS011;39868;53.398;6.564;2022-10-17T13:35:48;5.30;;;4.80;;
53961;SDS011;39868;53.398;6.564;2022-10-17T13:38:29;5.10;;;4.70;;
53961;SDS011;39868;53.398;6.564;2022-10-17T13:41:11;4.72;;;4.30;;
53961;SDS011;39868;53.398;6.564;2022-10-17T13:44:03;4.57;;;4.18;;
53961;SDS011;39868;53.398;6.564;2022-10-17T13:46:39;4.40;;;4.00;;
53961;SDS011;39868;53.398;6.564;2022-10-17T13:49:11;4.53;;;4.13;;
53961;SDS011;39868;53.398;6.564;2022-10-17T13:52:25;5.47;;;4.28;;
53961;SDS011;39868;53.398;6.564;2022-10-17T13:55:07;4.35;;;4.05;;
53961;SDS011;39868;53.398;6.564;2022-10-17T13:57:53;4.97;;;4.25;;
53961;SDS011;39868;53.398;6.564;2022-10-17T14:02:54;4.80;;;4.40;;
53961;SDS011;39868;53.398;6.564;2022-10-17T14:05:26;6.20;;;5.07;;
53961;SDS011;39868;53.398;6.564;2022-10-17T14:08:03;5.00;;;4.50;;
53961;SDS011;39868;53.398;6.564;2022-10-17T14:10:42;5.10;;;4.60;;
53961;SDS011;39868;53.398;6.564;2022-10-17T14:13:18;4.85;;;4.32;;
53961;SDS011;39868;53.398;6.564;2022-10-17T14:15:53;5.07;;;4.45;;
53961;SDS011;39868;53.398;6.564;2022-10-17T14:18:32;4.80;;;4.40;;
53961;SDS011;39868;53.398;6.564;2022-10-17T14:21:03;5.35;;;4.70;;
53961;SDS011;39868;53.398;6.564;2022-10-17T14:24:10;4.95;;;4.43;;
53961;SDS011;39868;53.398;6.564;2022-10-17T14:27:00;4.75;;;4.38;;
53961;SDS011;39868;53.398;6.564;2022-10-17T14:29:50;5.32;;;4.82;;
53961;SDS011;39868;53.398;6.564;2022-10-17T14:32:21;7.45;;;4.60;;
53961;SDS011;39868;53.398;6.564;2022-10-17T14:34:54;7.18;;;4.57;;
53961;SDS011;39868;53.398;6.564;2022-10-17T14:37:44;4.80;;;4.40;;
53961;SDS011;39868;53.398;6.564;2022-10-17T14:40:17;5.18;;;4.68;;
53961;SDS011;39868;53.398;6.564;2022-10-17T14:42:53;6.40;;;4.45;;
53961;SDS011;39868;53.398;6.564;2022-10-17T14:45:27;4.22;;;3.92;;
53961;SDS011;39868;53.398;6.564;2022-10-17T14:48:08;4.60;;;4.28;;
53961;SDS011;39868;53.398;6.564;2022-10-17T14:53:38;9.45;;;4.70;;
53961;SDS011;39868;53.398;6.564;2022-10-17T14:56:23;4.75;;;4.32;;
53961;SDS011;39868;53.398;6.564;2022-10-17T14:59:00;6.82;;;4.28;;
53961;SDS011;39868;53.398;6.564;2022-10-17T15:01:28;5.18;;;4.72;;
53961;SDS011;39868;53.398;6.564;2022-10-17T15:03:56;4.72;;;4.28;;
53961;SDS011;39868;53.398;6.564;2022-10-17T15:06:27;5.18;;;4.43;;
53961;SDS011;39868;53.398;6.564;2022-10-17T15:09:00;4.65;;;4.25;;
53961;SDS011;39868;53.398;6.564;2022-10-17T15:11:29;4.32;;;3.92;;
53961;SDS011;39868;53.398;6.564;2022-10-17T15:13:57;4.70;;;4.30;;
53961;SDS011;39868;53.398;6.564;2022-10-17T15:16:31;5.13;;;4.50;;
53961;SDS011;39868;53.398;6.564;2022-10-17T15:19:08;4.60;;;4.28;;
53961;SDS011;39868;53.398;6.564;2022-10-17T15:21:43;4.78;;;4.38;;
53961;SDS011;39868;53.398;6.564;2022-10-17T15:24:24;4.93;;;4.43;;
53961;SDS011;39868;53.398;6.564;2022-10-17T15:26:53;6.93;;;4.30;;
53961;SDS011;39868;53.398;6.564;2022-10-17T15:29:26;4.70;;;4.38;;
53961;SDS011;39868;53.398;6.564;2022-10-17T15:31:56;5.20;;;4.30;;
53961;SDS011;39868;53.398;6.564;2022-10-17T15:34:28;4.68;;;4.15;;
53961;SDS011;39868;53.398;6.564;2022-10-17T15:37:13;5.57;;;4.60;;
53961;SDS011;39868;53.398;6.564;2022-10-17T15:39:53;5.78;;;4.30;;
53961;SDS011;39868;53.398;6.564;2022-10-17T15:42:27;4.20;;;3.90;;
53961;SDS011;39868;53.398;6.564;2022-10-17T15:44:57;5.13;;;4.22;;
53961;SDS011;39868;53.398;6.564;2022-10-17T15:47:29;4.40;;;4.00;;
53961;SDS011;39868;53.398;6.564;2022-10-17T15:50:01;4.22;;;3.90;;
53961;SDS011;39868;53.398;6.564;2022-10-17T15:52:33;4.22;;;3.83;;
53961;SDS011;39868;53.398;6.564;2022-10-17T15:55:03;5.10;;;4.13;;
53961;SDS011;39868;53.398;6.564;2022-10-17T15:57:32;4.40;;;4.00;;
53961;SDS011;39868;53.398;6.564;2022-10-17T16:00:04;4.30;;;4.00;;
53961;SDS011;39868;53.398;6.564;2022-10-17T16:02:39;4.15;;;3.85;;
53961;SDS011;39868;53.398;6.564;2022-10-17T16:05:17;4.38;;;3.90;;
53961;SDS011;39868;53.398;6.564;2022-10-17T16:08:03;4.28;;;3.85;;
53961;SDS011;39868;53.398;6.564;2022-10-17T16:10:38;4.15;;;3.78;;
53961;SDS011;39868;53.398;6.564;2022-10-17T16:15:42;3.90;;;3.60;;
53961;SDS011;39868;53.398;6.564;2022-10-17T16:18:12;3.83;;;3.53;;
53961;SDS011;39868;53.398;6.564;2022-10-17T16:20:44;4.25;;;3.85;;
53961;SDS011;39868;53.398;6.564;2022-10-17T16:23:13;5.80;;;3.70;;
53961;SDS011;39868;53.398;6.564;2022-10-17T16:25:47;4.03;;;3.72;;
53961;SDS011;39868;53.398;6.564;2022-10-17T16:28:17;4.72;;;3.58;;
53961;SDS011;39868;53.398;6.564;2022-10-17T16:30:46;5.13;;;3.88;;
53961;SDS011;39868;53.398;6.564;2022-10-17T16:33:18;3.92;;;3.55;;
53961;SDS011;39868;53.398;6.564;2022-10-17T16:35:47;3.70;;;3.35;;
53961;SDS011;39868;53.398;6.564;2022-10-17T16:38:15;5.57;;;4.05;;
53961;SDS011;39868;53.398;6.564;2022-10-17T16:40:43;4.35;;;3.95;;
53961;SDS011;39868;53.398;6.564;2022-10-17T16:43:15;4.05;;;3.75;;
53961;SDS011;39868;53.398;6.564;2022-10-17T16:45:45;4.60;;;3.47;;
53961;SDS011;39868;53.398;6.564;2022-10-17T16:48:18;4.00;;;3.70;;
53961;SDS011;39868;53.398;6.564;2022-10-17T16:50:54;4.30;;;3.90;;
53961;SDS011;39868;53.398;6.564;2022-10-17T16:53:24;4.53;;;3.80;;
53961;SDS011;39868;53.398;6.564;2022-10-17T16:56:00;4.10;;;3.70;;
53961;SDS011;39868;53.398;6.564;2022-10-17T16:58:32;4.50;;;4.10;;
53961;SDS011;39868;53.398;6.564;2022-10-17T17:01:05;4.15;;;3.80;;
53961;SDS011;39868;53.398;6.564;2022-10-17T17:03:38;4.18;;;3.78;;
53961;SDS011;39868;53.398;6.564;2022-10-17T17:06:10;3.95;;;3.65;;
53961;SDS011;39868;53.398;6.564;2022-10-17T17:11:11;4.32;;;3.75;;
53961;SDS011;39868;53.398;6.564;2022-10-17T17:13:44;6.03;;;4.03;;
53961;SDS011;39868;53.398;6.564;2022-10-17T17:16:18;4.45;;;3.97;;
53961;SDS011;39868;53.398;6.564;2022-10-17T17:18:52;5.18;;;3.92;;
53961;SDS011;39868;53.398;6.564;2022-10-17T17:21:31;4.43;;;3.95;;
53961;SDS011;39868;53.398;6.564;2022-10-17T17:24:03;4.05;;;3.72;;
53961;SDS011;39868;53.398;6.564;2022-10-17T17:26:35;5.30;;;3.97;;
53961;SDS011;39868;53.398;6.564;2022-10-17T17:29:06;3.88;;;3.58;;
53961;SDS011;39868;53.398;6.564;2022-10-17T17:31:38;5.18;;;3.85;;
53961;SDS011;39868;53.398;6.564;2022-10-17T17:34:08;4.78;;;3.72;;
53961;SDS011;39868;53.398;6.564;2022-10-17T17:36:44;3.75;;;3.38;;
53961;SDS011;39868;53.398;6.564;2022-10-17T17:39:15;5.55;;;3.45;;
53961;SDS011;39868;53.398;6.564;2022-10-17T17:41:43;6.57;;;4.00;;
53961;SDS011;39868;53.398;6.564;2022-10-17T17:44:12;4.38;;;3.95;;
53961;SDS011;39868;53.398;6.564;2022-10-17T17:46:43;5.88;;;3.53;;